createdAt,value
2022-10-12T00:00:45.907Z,23.00
2022-10-12T00:02:47.223Z,23.01
2022-10-12T00:04:48.530Z,23.00
2022-10-12T00:06:49.841Z,23.00
2022-10-12T00:08:51.183Z,23.09
2022-10-12T00:10:52.442Z,23.19
2022-10-12T00:12:53.715Z,23.21
2022-10-12T00:14:55.054Z,23.24
2022-10-12T00:16:56.393Z,23.26
2022-10-12T00:18:57.718Z,23.23
2022-10-12T00:20:59.010Z,23.23
2022-10-12T00:23:00.302Z,23.21
2022-10-12T00:25:01.579Z,23.20
2022-10-12T00:27:02.896Z,23.14
2022-10-12T00:29:04.259Z,23.21
2022-10-12T00:31:05.532Z,23.47
2022-10-12T00:33:07.654Z,23.66
2022-10-12T00:35:08.922Z,23.67
2022-10-12T00:37:10.922Z,23.55
2022-10-12T00:39:12.266Z,23.46
2022-10-12T00:41:13.538Z,23.74
2022-10-12T00:43:14.962Z,23.61
2022-10-12T00:45:16.226Z,23.52
2022-10-12T00:47:17.530Z,23.49
2022-10-12T00:49:18.870Z,23.53
2022-10-12T00:51:20.266Z,23.85
2022-10-12T00:53:21.690Z,23.69
2022-10-12T00:55:22.994Z,23.41
2022-10-12T00:57:24.263Z,23.41
2022-10-12T00:59:25.530Z,23.38
2022-10-12T01:01:26.920Z,23.19
2022-10-12T01:03:28.198Z,23.17
2022-10-12T01:05:29.470Z,23.30
2022-10-12T01:07:30.806Z,22.60
2022-10-12T01:09:32.082Z,23.38
2022-10-12T01:11:33.349Z,23.27
2022-10-12T01:13:34.675Z,23.45
2022-10-12T01:15:35.983Z,23.51
2022-10-12T01:17:37.796Z,23.37
2022-10-12T01:19:39.254Z,23.37
2022-10-12T01:21:40.555Z,23.37
2022-10-12T01:23:42.218Z,23.44
2022-10-12T01:25:43.489Z,23.30
2022-10-12T01:27:44.804Z,23.22
2022-10-12T01:29:46.082Z,23.14
2022-10-12T01:31:47.405Z,22.69
2022-10-12T01:33:48.674Z,22.49
2022-10-12T01:35:50.030Z,22.40
2022-10-12T01:37:51.319Z,22.32
2022-10-12T01:39:52.805Z,22.27
2022-10-12T01:41:54.139Z,22.22
2022-10-12T01:43:55.453Z,22.17
2022-10-12T01:45:56.735Z,22.13
2022-10-12T01:47:58.057Z,22.10
2022-10-12T01:49:59.383Z,22.07
2022-10-12T01:52:00.706Z,22.03
2022-10-12T01:54:02.000Z,22.01
2022-10-12T01:56:03.311Z,22.00
2022-10-12T01:58:04.741Z,21.98
2022-10-12T02:00:06.011Z,21.97
2022-10-12T02:02:07.338Z,21.97
2022-10-12T02:04:08.618Z,21.96
2022-10-12T02:06:09.912Z,21.94
2022-10-12T02:08:11.767Z,21.95
2022-10-12T02:10:13.498Z,21.93
2022-10-12T02:12:14.759Z,21.91
2022-10-12T02:14:16.102Z,21.91
2022-10-12T02:16:17.379Z,21.88
2022-10-12T02:18:18.727Z,21.88
2022-10-12T02:20:20.087Z,21.86
2022-10-12T02:22:21.369Z,21.86
2022-10-12T02:24:22.662Z,21.86
2022-10-12T02:26:23.987Z,21.85
2022-10-12T02:28:25.391Z,21.84
2022-10-12T02:30:26.700Z,21.83
2022-10-12T02:32:28.790Z,21.83
2022-10-12T02:34:30.114Z,21.82
2022-10-12T02:36:31.386Z,21.83
2022-10-12T02:38:32.798Z,21.82
2022-10-12T02:40:34.088Z,21.81
2022-10-12T02:42:58.446Z,21.82
2022-10-12T02:44:56.755Z,21.81
2022-10-12T02:46:58.043Z,21.81
2022-10-12T02:48:59.329Z,21.81
2022-10-12T02:51:00.617Z,21.83
2022-10-12T02:53:01.890Z,21.80
2022-10-12T02:55:03.175Z,21.77
2022-10-12T02:57:05.828Z,21.73
2022-10-12T02:59:07.102Z,21.73
2022-10-12T03:01:08.618Z,21.72
2022-10-12T03:03:09.995Z,21.70
2022-10-12T03:05:11.267Z,21.70
2022-10-12T03:07:12.600Z,21.70
2022-10-12T03:09:14.250Z,21.71
2022-10-12T03:11:15.594Z,21.72
2022-10-12T03:13:17.838Z,21.72
2022-10-12T03:15:19.109Z,21.72
2022-10-12T03:17:20.430Z,21.73
2022-10-12T03:19:21.743Z,21.75
2022-10-12T03:21:23.037Z,21.75
2022-10-12T03:23:24.346Z,21.74
2022-10-12T03:25:25.634Z,21.74
2022-10-12T03:27:26.907Z,21.74
2022-10-12T03:29:28.238Z,21.74
2022-10-12T03:31:29.535Z,21.73
2022-10-12T03:33:30.804Z,21.74
2022-10-12T03:35:32.857Z,21.72
2022-10-12T03:37:34.147Z,21.75
2022-10-12T03:39:35.785Z,21.76
2022-10-12T03:41:37.124Z,21.80
2022-10-12T03:43:38.399Z,21.79
2022-10-12T03:45:39.683Z,21.80
2022-10-12T03:47:41.368Z,21.79
2022-10-12T03:49:42.802Z,21.78
2022-10-12T03:51:44.082Z,21.79
2022-10-12T03:53:45.783Z,21.78
2022-10-12T03:55:47.190Z,21.77
2022-10-12T03:57:48.450Z,21.77
2022-10-12T03:59:49.783Z,21.79
2022-10-12T04:01:51.115Z,21.85
2022-10-12T04:03:52.414Z,21.87
2022-10-12T04:05:54.909Z,21.86
2022-10-12T04:07:56.186Z,21.85
2022-10-12T04:09:57.475Z,21.85
2022-10-12T04:11:58.747Z,21.82
2022-10-12T04:14:00.226Z,21.79
2022-10-12T04:16:01.554Z,21.78
2022-10-12T04:18:02.823Z,21.75
2022-10-12T04:20:04.423Z,21.71
2022-10-12T04:22:05.740Z,21.68
2022-10-12T04:24:07.232Z,21.66
2022-10-12T04:26:08.550Z,21.64
2022-10-12T04:28:09.925Z,21.63
2022-10-12T04:30:11.325Z,21.65
2022-10-12T04:32:12.933Z,21.69
2022-10-12T04:34:14.290Z,21.67
2022-10-12T04:36:15.556Z,21.68
2022-10-12T04:38:16.878Z,21.68
2022-10-12T04:40:18.906Z,21.66
2022-10-12T04:42:20.201Z,21.64
2022-10-12T04:44:21.535Z,21.63
2022-10-12T04:46:22.904Z,21.64
2022-10-12T04:48:24.186Z,21.64
2022-10-12T04:50:29.823Z,21.65
2022-10-12T04:52:31.503Z,21.65
2022-10-12T04:54:32.898Z,21.66
2022-10-12T04:56:34.210Z,21.65
2022-10-12T04:58:35.602Z,21.64
2022-10-12T05:00:36.898Z,21.65
2022-10-12T05:02:38.238Z,21.65
2022-10-12T05:04:39.525Z,21.65
2022-10-12T05:06:40.803Z,21.65
2022-10-12T05:08:42.111Z,21.64
2022-10-12T05:10:43.403Z,21.65
2022-10-12T05:12:44.853Z,21.66
2022-10-12T05:14:46.142Z,21.66
2022-10-12T05:16:47.834Z,21.67
2022-10-12T05:18:49.146Z,21.70
2022-10-12T05:20:53.328Z,21.74
2022-10-12T05:22:58.175Z,21.73
2022-10-12T05:24:59.597Z,21.73
2022-10-12T05:27:00.965Z,21.76
2022-10-12T05:29:02.386Z,21.77
2022-10-12T05:31:03.745Z,21.77
2022-10-12T05:33:05.041Z,21.75
2022-10-12T05:35:06.974Z,21.76
2022-10-12T05:37:08.282Z,21.77
2022-10-12T05:39:09.567Z,21.76
2022-10-12T05:41:10.922Z,21.76
2022-10-12T05:43:12.212Z,21.77
2022-10-12T05:45:13.973Z,21.78
2022-10-12T05:47:15.359Z,21.83
2022-10-12T05:49:16.653Z,21.83
2022-10-12T05:51:17.985Z,21.81
2022-10-12T05:53:19.998Z,21.83
2022-10-12T05:55:21.338Z,21.86
2022-10-12T05:57:23.005Z,21.86
2022-10-12T05:59:25.011Z,21.87
2022-10-12T06:01:26.278Z,21.85
2022-10-12T06:03:30.425Z,21.87
2022-10-12T06:05:34.023Z,21.90
2022-10-12T06:07:35.283Z,21.91
2022-10-12T06:09:39.071Z,21.89
2022-10-12T06:11:40.362Z,21.87
2022-10-12T06:13:41.619Z,21.89
2022-10-12T06:15:42.885Z,21.87
2022-10-12T06:17:44.215Z,21.90
2022-10-12T06:19:45.517Z,21.91
2022-10-12T06:21:46.786Z,21.91
2022-10-12T06:23:48.190Z,21.92
2022-10-12T06:25:49.466Z,21.90
2022-10-12T06:27:50.739Z,21.90
2022-10-12T06:29:52.131Z,21.92
2022-10-12T06:31:54.225Z,21.92
2022-10-12T06:33:55.538Z,21.96
2022-10-12T06:35:56.899Z,21.95
2022-10-12T06:37:58.197Z,21.93
2022-10-12T06:39:59.466Z,21.33
2022-10-12T06:42:00.798Z,18.73
2022-10-12T06:44:02.133Z,17.78
2022-10-12T06:46:03.414Z,17.20
2022-10-12T06:48:04.701Z,16.73
2022-10-12T06:50:06.041Z,17.32
2022-10-12T06:52:07.329Z,18.92
2022-10-12T06:54:08.626Z,20.06
2022-10-12T06:56:10.039Z,20.61
2022-10-12T06:58:11.373Z,20.92
2022-10-12T07:00:13.353Z,21.14
2022-10-12T07:02:14.711Z,21.32
2022-10-12T07:04:15.987Z,21.43
2022-10-12T07:06:17.309Z,21.59
2022-10-12T07:08:18.663Z,21.70
2022-10-12T07:10:20.022Z,21.76
2022-10-12T07:12:21.358Z,21.85
2022-10-12T07:14:22.622Z,21.90
2022-10-12T07:16:23.922Z,22.00
2022-10-12T07:18:25.239Z,22.13
2022-10-12T07:20:26.536Z,22.19
2022-10-12T07:22:27.870Z,21.97
2022-10-12T07:24:36.220Z,21.80
2022-10-12T07:26:37.524Z,21.69
2022-10-12T07:28:38.937Z,21.62
2022-10-12T07:30:40.298Z,21.58
2022-10-12T07:32:42.509Z,21.72
2022-10-12T07:34:44.798Z,21.82
2022-10-12T07:36:59.035Z,21.86
2022-10-12T07:39:00.976Z,21.86
2022-10-12T07:41:02.291Z,21.69
2022-10-12T07:43:15.818Z,21.84
2022-10-12T07:45:17.739Z,21.79
2022-10-12T07:47:19.459Z,21.80
2022-10-12T07:49:20.771Z,21.81
2022-10-12T07:51:22.104Z,21.83
2022-10-12T07:53:23.406Z,21.88
2022-10-12T07:55:24.735Z,21.90
2022-10-12T07:57:26.137Z,21.87
2022-10-12T07:59:27.421Z,21.78
2022-10-12T08:01:29.860Z,21.71
2022-10-12T08:03:31.174Z,21.72
2022-10-12T08:05:32.451Z,21.73
2022-10-12T08:07:33.746Z,21.76
2022-10-12T08:09:37.979Z,21.79
2022-10-12T08:11:39.388Z,21.80
2022-10-12T08:13:40.692Z,21.83
2022-10-12T08:15:41.972Z,21.85
2022-10-12T08:17:43.234Z,21.87
2022-10-12T08:19:44.511Z,21.86
2022-10-12T08:21:45.845Z,21.85
2022-10-12T08:23:47.170Z,21.83
2022-10-12T08:25:48.702Z,21.79
2022-10-12T08:27:49.995Z,21.78
2022-10-12T08:29:51.267Z,21.75
2022-10-12T08:31:54.423Z,21.74
2022-10-12T08:33:55.790Z,21.73
2022-10-12T08:35:57.066Z,21.73
2022-10-12T08:37:58.425Z,21.71
2022-10-12T08:40:03.266Z,21.71
2022-10-12T08:42:05.074Z,21.71
2022-10-12T08:44:06.363Z,21.71
2022-10-12T08:46:10.397Z,21.71
2022-10-12T08:48:11.675Z,21.71
2022-10-12T08:50:12.942Z,21.72
2022-10-12T08:52:14.259Z,21.72
2022-10-12T08:54:15.568Z,21.78
2022-10-12T08:56:17.220Z,21.93
2022-10-12T08:58:20.619Z,22.04
2022-10-12T09:00:22.036Z,22.11
2022-10-12T09:02:23.383Z,22.18
2022-10-12T09:04:24.714Z,22.24
2022-10-12T09:06:25.982Z,22.25
2022-10-12T09:08:27.287Z,22.28
2022-10-12T09:10:28.623Z,22.30
2022-10-12T09:12:29.907Z,22.32
2022-10-12T09:14:31.223Z,22.37
2022-10-12T09:16:32.528Z,22.40
2022-10-12T09:18:38.224Z,22.39
2022-10-12T09:20:41.885Z,22.40
2022-10-12T09:22:43.616Z,22.40
2022-10-12T09:24:45.222Z,22.40
2022-10-12T09:26:46.538Z,22.43
2022-10-12T09:28:47.950Z,22.45
2022-10-12T09:30:50.235Z,22.47
2022-10-12T09:32:51.506Z,22.45
2022-10-12T09:34:52.823Z,22.44
2022-10-12T09:36:55.620Z,22.45
2022-10-12T09:38:56.922Z,22.33
2022-10-12T09:40:58.198Z,22.86
2022-10-12T09:42:59.453Z,23.15
2022-10-12T09:45:00.767Z,22.96
2022-10-12T09:49:03.337Z,22.61
2022-10-12T09:51:05.539Z,23.13
2022-10-12T09:53:06.801Z,23.55
2022-10-12T09:55:08.198Z,23.28
2022-10-12T09:57:09.513Z,23.19
2022-10-12T09:59:10.845Z,23.46
2022-10-12T10:01:12.179Z,23.97
2022-10-12T10:03:13.779Z,23.98
2022-10-12T10:05:15.055Z,24.01
2022-10-12T10:07:16.355Z,23.79
2022-10-12T10:09:17.627Z,23.91
2022-10-12T10:11:18.886Z,23.77
2022-10-12T10:13:20.211Z,23.75
2022-10-12T10:15:21.791Z,23.66
2022-10-12T10:17:23.071Z,23.74
2022-10-12T10:19:26.029Z,23.58
2022-10-12T10:21:27.306Z,23.47
2022-10-12T10:23:28.704Z,23.47
2022-10-12T10:25:30.027Z,23.44
2022-10-12T10:27:31.550Z,23.39
2022-10-12T10:29:33.267Z,23.39
2022-10-12T10:31:35.632Z,23.48
2022-10-12T10:33:36.902Z,23.63
2022-10-12T10:35:38.201Z,23.48
2022-10-12T10:37:39.478Z,23.44
2022-10-12T10:39:40.753Z,23.74
2022-10-12T10:41:42.045Z,23.64
2022-10-12T10:43:43.355Z,23.62
2022-10-12T10:47:47.134Z,23.52
2022-10-12T10:49:49.629Z,23.31
2022-10-12T10:51:51.468Z,23.01
2022-10-12T10:53:52.773Z,22.78
2022-10-12T10:55:54.048Z,22.75
2022-10-12T10:57:55.371Z,22.77
2022-10-12T11:00:02.260Z,22.77
2022-10-12T11:02:10.915Z,22.77
2022-10-12T11:04:12.231Z,22.73
2022-10-12T11:06:13.507Z,22.74
2022-10-12T11:08:15.361Z,22.77
2022-10-12T11:10:16.679Z,22.75
2022-10-12T11:12:18.001Z,22.76
2022-10-12T11:14:19.266Z,22.76
2022-10-12T11:16:20.536Z,22.76
2022-10-12T11:18:22.974Z,22.75
2022-10-12T11:20:24.256Z,22.73
2022-10-12T11:22:25.539Z,22.74
2022-10-12T11:24:26.846Z,22.75
2022-10-12T11:26:28.188Z,22.75
2022-10-12T11:28:31.168Z,22.76
2022-10-12T11:30:32.494Z,22.67
2022-10-12T11:32:33.784Z,22.65
2022-10-12T11:34:35.043Z,22.34
2022-10-12T11:36:36.310Z,21.80
2022-10-12T11:38:37.587Z,21.39
2022-10-12T11:41:02.446Z,21.68
2022-10-12T11:43:00.131Z,22.86
2022-10-12T11:45:01.505Z,23.54
2022-10-12T11:47:02.826Z,23.74
2022-10-12T11:49:04.147Z,23.62
2022-10-12T11:51:05.528Z,23.56
2022-10-12T11:53:06.865Z,23.74
2022-10-12T11:55:10.945Z,23.48
2022-10-12T11:57:12.299Z,23.45
2022-10-12T11:59:14.144Z,23.40
2022-10-12T12:01:15.479Z,23.41
2022-10-12T12:03:16.873Z,23.61
2022-10-12T12:05:18.290Z,24.00
2022-10-12T12:07:19.572Z,23.60
2022-10-12T12:09:20.920Z,23.56
2022-10-12T12:11:22.284Z,23.60
2022-10-12T12:13:23.700Z,23.85
2022-10-12T12:15:24.999Z,24.26
2022-10-12T12:17:30.907Z,24.44
2022-10-12T12:19:33.362Z,24.57
2022-10-12T12:21:34.626Z,24.61
2022-10-12T12:23:35.914Z,24.32
2022-10-12T12:25:37.269Z,24.35
2022-10-12T12:27:38.566Z,24.31
2022-10-12T12:29:40.274Z,24.41
2022-10-12T12:31:41.754Z,24.37
2022-10-12T12:33:43.088Z,24.26
2022-10-12T12:35:44.358Z,24.23
2022-10-12T12:37:45.644Z,24.27
2022-10-12T12:39:46.935Z,24.39
2022-10-12T12:41:53.344Z,24.41
2022-10-12T12:43:56.728Z,24.45
2022-10-12T12:45:58.058Z,23.85
2022-10-12T12:47:59.400Z,23.55
2022-10-12T12:50:00.868Z,23.48
2022-10-12T12:52:02.294Z,23.46
2022-10-12T12:54:03.553Z,23.43
2022-10-12T12:56:04.830Z,23.43
2022-10-12T12:58:06.159Z,23.43
2022-10-12T13:00:08.442Z,23.44
2022-10-12T13:02:09.980Z,23.44
2022-10-12T13:04:11.333Z,23.42
2022-10-12T13:06:12.646Z,23.42
2022-10-12T13:08:13.937Z,23.39
2022-10-12T13:10:15.200Z,23.37
2022-10-12T13:12:16.673Z,23.37
2022-10-12T13:14:17.947Z,23.38
2022-10-12T13:16:36.502Z,23.37
2022-10-12T13:18:48.860Z,23.36
2022-10-12T13:20:50.638Z,23.37
2022-10-12T13:22:51.913Z,23.31
2022-10-12T13:24:53.181Z,23.28
2022-10-12T13:26:54.525Z,23.23
2022-10-12T13:28:55.882Z,23.05
2022-10-12T13:30:57.215Z,22.92
2022-10-12T13:32:58.701Z,22.91
2022-10-12T13:35:00.015Z,22.82
2022-10-12T13:37:01.330Z,22.77
2022-10-12T13:39:02.632Z,22.71
2022-10-12T13:41:03.938Z,22.65
2022-10-12T13:43:05.239Z,22.73
2022-10-12T13:45:06.526Z,22.79
2022-10-12T13:47:10.381Z,22.73
2022-10-12T13:49:11.846Z,22.66
2022-10-12T13:51:13.110Z,22.62
2022-10-12T13:53:14.419Z,22.80
2022-10-12T13:55:15.734Z,22.30
2022-10-12T13:57:17.032Z,22.79
2022-10-12T13:59:19.175Z,22.63
2022-10-12T14:03:21.833Z,23.16
2022-10-12T14:05:23.093Z,23.41
2022-10-12T14:07:24.361Z,23.19
2022-10-12T14:09:25.631Z,23.04
2022-10-12T14:11:27.048Z,22.99
2022-10-12T14:13:28.396Z,22.97
2022-10-12T14:15:29.686Z,22.97
2022-10-12T14:17:30.963Z,22.88
2022-10-12T14:19:32.678Z,23.09
2022-10-12T14:21:36.816Z,23.17
2022-10-12T14:23:38.288Z,23.20
2022-10-12T14:25:39.566Z,23.39
2022-10-12T14:27:40.903Z,23.34
2022-10-12T14:29:42.587Z,23.36
2022-10-12T14:31:43.865Z,23.35
2022-10-12T14:33:45.159Z,23.24
2022-10-12T14:35:49.681Z,23.28
2022-10-12T14:37:51.028Z,23.18
2022-10-12T14:39:59.283Z,23.38
2022-10-12T14:42:00.779Z,23.14
2022-10-12T14:44:02.064Z,23.28
2022-10-12T14:46:03.354Z,23.15
2022-10-12T14:48:05.554Z,23.18
2022-10-12T14:50:08.317Z,23.14
2022-10-12T14:52:09.663Z,23.13
2022-10-12T14:54:11.405Z,23.09
2022-10-12T14:56:15.390Z,23.05
2022-10-12T14:58:16.709Z,23.06
2022-10-12T15:00:17.992Z,23.18
2022-10-12T15:02:19.311Z,23.26
2022-10-12T15:04:20.590Z,23.09
2022-10-12T15:06:21.903Z,23.02
2022-10-12T15:08:23.204Z,23.00
2022-10-12T15:10:24.523Z,23.03
2022-10-12T15:12:25.874Z,23.06
2022-10-12T15:14:27.174Z,23.07
2022-10-12T15:16:29.528Z,23.44
2022-10-12T15:18:30.824Z,23.23
2022-10-12T15:20:32.174Z,23.06
2022-10-12T15:22:33.471Z,22.80
2022-10-12T15:24:35.685Z,22.43
2022-10-12T15:26:42.301Z,22.47
2022-10-12T15:28:44.046Z,22.76
2022-10-12T15:31:04.589Z,23.14
2022-10-12T15:33:07.282Z,23.10
2022-10-12T15:35:08.566Z,23.19
2022-10-12T15:37:09.850Z,23.30
2022-10-12T15:39:11.167Z,23.25
2022-10-12T15:41:12.614Z,23.10
2022-10-12T15:43:13.934Z,22.47
2022-10-12T15:45:15.372Z,22.61
2022-10-12T15:47:16.676Z,22.66
2022-10-12T15:49:24.134Z,22.76
2022-10-12T15:51:25.432Z,22.78
2022-10-12T15:53:27.308Z,22.73
2022-10-12T15:55:28.649Z,22.75
2022-10-12T15:57:30.096Z,22.73
2022-10-12T15:59:31.377Z,22.83
2022-10-12T16:01:32.693Z,22.88
2022-10-12T16:03:34.006Z,22.91
2022-10-12T16:05:38.230Z,22.29
2022-10-12T16:09:40.784Z,22.31
2022-10-12T16:11:42.129Z,22.59
2022-10-12T16:13:51.049Z,22.64
2022-10-12T16:15:55.580Z,23.02
2022-10-12T16:17:56.848Z,22.91
2022-10-12T16:19:58.108Z,22.89
2022-10-12T16:22:01.122Z,22.84
2022-10-12T16:24:03.659Z,22.87
2022-10-12T16:26:05.078Z,22.93
2022-10-12T16:28:06.340Z,23.00
2022-10-12T16:30:07.618Z,23.29
2022-10-12T16:32:09.089Z,23.10
2022-10-12T16:34:10.365Z,23.14
2022-10-12T16:36:11.707Z,23.36
2022-10-12T16:38:14.733Z,23.28
2022-10-12T16:40:16.062Z,23.22
2022-10-12T16:42:17.454Z,23.25
2022-10-12T16:44:18.754Z,23.24
2022-10-12T16:46:20.033Z,23.30
2022-10-12T16:48:24.548Z,23.29
2022-10-12T16:50:25.904Z,23.30
2022-10-12T16:52:27.245Z,23.18
2022-10-12T16:54:34.666Z,22.72
2022-10-12T16:56:39.245Z,22.80
2022-10-12T16:58:41.329Z,23.05
2022-10-12T17:00:43.404Z,23.22
2022-10-12T17:02:44.756Z,23.25
2022-10-12T17:04:46.198Z,23.26
2022-10-12T17:06:47.485Z,23.29
2022-10-12T17:08:48.811Z,23.28
2022-10-12T17:10:50.325Z,23.33
2022-10-12T17:12:54.382Z,23.41
2022-10-12T17:14:55.651Z,23.41
2022-10-12T17:16:57.532Z,23.38
2022-10-12T17:18:59.730Z,23.38
2022-10-12T17:21:01.227Z,23.38
2022-10-12T17:23:02.518Z,23.47
2022-10-12T17:25:06.550Z,23.45
2022-10-12T17:27:07.867Z,23.45
2022-10-12T17:29:09.155Z,23.56
2022-10-12T17:31:11.820Z,23.49
2022-10-12T17:33:13.326Z,23.59
2022-10-12T17:35:14.601Z,23.54
2022-10-12T17:37:15.954Z,23.56
2022-10-12T17:39:17.257Z,23.63
2022-10-12T17:41:18.565Z,23.76
2022-10-12T17:43:26.741Z,23.70
2022-10-12T17:45:28.157Z,23.61
2022-10-12T17:47:29.466Z,23.52
2022-10-12T17:49:30.758Z,23.54
2022-10-12T17:51:32.085Z,23.13
2022-10-12T17:53:33.737Z,22.79
2022-10-12T17:55:49.389Z,22.48
2022-10-12T17:57:50.669Z,22.97
2022-10-12T17:59:51.988Z,22.90
2022-10-12T18:01:53.407Z,22.91
2022-10-12T18:03:55.454Z,23.07
2022-10-12T18:05:59.664Z,23.12
2022-10-12T18:08:00.939Z,23.26
2022-10-12T18:10:02.210Z,23.29
2022-10-12T18:12:03.486Z,22.43
2022-10-12T18:14:07.762Z,23.26
2022-10-12T18:16:12.296Z,23.31
2022-10-12T18:18:15.373Z,23.40
2022-10-12T18:20:18.472Z,23.31
2022-10-12T18:22:19.912Z,23.27
2022-10-12T18:24:23.202Z,23.36
2022-10-12T18:26:27.711Z,23.41
2022-10-12T18:28:29.106Z,23.49
2022-10-12T18:30:30.411Z,23.97
2022-10-12T18:32:31.723Z,24.05
2022-10-12T18:34:42.225Z,23.92
2022-10-12T18:36:43.711Z,23.60
2022-10-12T18:38:45.147Z,23.75
2022-10-12T18:40:47.581Z,23.69
2022-10-12T18:42:51.791Z,23.51
2022-10-12T18:44:55.773Z,23.40
2022-10-12T18:47:00.146Z,23.47
2022-10-12T18:49:02.808Z,23.52
2022-10-12T18:51:04.345Z,23.44
2022-10-12T18:53:05.675Z,23.39
2022-10-12T18:55:09.952Z,23.43
2022-10-12T18:57:11.209Z,23.51
2022-10-12T18:59:12.567Z,23.02
2022-10-12T19:01:14.890Z,23.10
2022-10-12T19:03:16.200Z,23.25
2022-10-12T19:05:17.503Z,23.30
2022-10-12T19:07:18.998Z,23.34
2022-10-12T19:09:20.461Z,23.38
2022-10-12T19:11:21.727Z,23.39
2022-10-12T19:13:23.023Z,23.46
2022-10-12T19:15:28.719Z,23.51
2022-10-12T19:17:30.015Z,23.53
2022-10-12T19:19:32.232Z,23.50
2022-10-12T19:21:34.285Z,23.44
2022-10-12T19:23:35.558Z,23.47
2022-10-12T19:25:36.835Z,23.50
2022-10-12T19:27:38.097Z,23.53
2022-10-12T19:29:42.395Z,23.65
2022-10-12T19:31:46.863Z,23.42
2022-10-12T19:33:51.354Z,23.79
2022-10-12T19:35:52.658Z,23.67
2022-10-12T19:37:54.451Z,23.54
2022-10-12T19:39:55.938Z,23.34
2022-10-12T19:41:57.223Z,22.95
2022-10-12T19:43:58.518Z,23.07
2022-10-12T19:45:59.799Z,23.40
2022-10-12T19:48:01.074Z,23.41
2022-10-12T19:50:02.418Z,23.48
2022-10-12T19:52:03.752Z,23.47
2022-10-12T19:54:05.187Z,23.46
2022-10-12T19:56:06.479Z,23.56
2022-10-12T19:58:07.764Z,23.58
2022-10-12T20:00:09.078Z,23.47
2022-10-12T20:02:10.510Z,23.51
2022-10-12T20:04:12.080Z,23.46
2022-10-12T20:06:13.417Z,23.40
2022-10-12T20:08:14.706Z,23.40
2022-10-12T20:10:16.004Z,23.41
2022-10-12T20:12:17.413Z,23.33
2022-10-12T20:14:18.868Z,23.36
2022-10-12T20:16:20.194Z,23.34
2022-10-12T20:18:21.644Z,23.34
2022-10-12T20:20:22.976Z,23.37
2022-10-12T20:22:24.242Z,23.37
2022-10-12T20:24:25.655Z,23.36
2022-10-12T20:26:26.972Z,23.41
2022-10-12T20:28:28.257Z,23.45
2022-10-12T20:30:29.644Z,23.07
2022-10-12T20:32:30.918Z,23.16
2022-10-12T20:34:32.182Z,23.33
2022-10-12T20:36:33.526Z,23.41
2022-10-12T20:38:34.854Z,23.43
2022-10-12T20:40:36.126Z,23.48
2022-10-12T20:42:37.410Z,23.50
2022-10-12T20:44:38.735Z,23.53
2022-10-12T20:46:40.174Z,23.65
2022-10-12T20:48:41.492Z,23.63
2022-10-12T20:50:42.754Z,23.52
2022-10-12T20:52:44.026Z,23.51
2022-10-12T20:54:45.328Z,23.43
2022-10-12T20:56:52.241Z,23.39
2022-10-12T20:58:54.279Z,23.38
2022-10-12T21:00:55.597Z,23.30
2022-10-12T21:02:56.874Z,23.10
2022-10-12T21:05:00.938Z,22.70
2022-10-12T21:07:02.207Z,22.97
2022-10-12T21:09:03.485Z,23.06
2022-10-12T21:11:04.784Z,23.12
2022-10-12T21:13:06.067Z,23.15
2022-10-12T21:15:07.351Z,23.12
2022-10-12T21:17:08.843Z,23.18
2022-10-12T21:19:10.133Z,23.23
2022-10-12T21:21:11.630Z,23.42
2022-10-12T21:23:13.020Z,23.36
2022-10-12T21:25:14.300Z,23.23
2022-10-12T21:27:15.574Z,23.16
2022-10-12T21:29:16.946Z,23.05
2022-10-12T21:31:18.207Z,23.33
2022-10-12T21:33:19.699Z,23.23
2022-10-12T21:35:21.015Z,23.20
2022-10-12T21:37:22.307Z,23.20
2022-10-12T21:39:23.694Z,23.16
2022-10-12T21:41:25.977Z,23.32
2022-10-12T21:43:27.291Z,23.29
2022-10-12T21:45:28.609Z,23.30
2022-10-12T21:47:29.949Z,23.31
2022-10-12T21:49:31.250Z,23.30
2022-10-12T21:51:32.519Z,23.40
2022-10-12T21:53:34.084Z,21.12
2022-10-12T21:55:35.383Z,19.59
2022-10-12T21:57:37.317Z,20.78
2022-10-12T21:59:39.001Z,21.55
2022-10-12T22:01:40.396Z,21.84
2022-10-12T22:03:41.671Z,21.91
2022-10-12T22:05:42.951Z,21.94
2022-10-12T22:07:44.257Z,21.93
2022-10-12T22:09:45.571Z,21.94
2022-10-12T22:11:47.046Z,21.93
2022-10-12T22:13:48.326Z,21.91
2022-10-12T22:15:49.608Z,21.86
2022-10-12T22:17:50.902Z,21.83
2022-10-12T22:19:52.206Z,21.81
2022-10-12T22:21:53.511Z,21.79
2022-10-12T22:23:54.802Z,21.76
2022-10-12T22:25:56.117Z,21.73
2022-10-12T22:27:57.407Z,21.71
2022-10-12T22:30:00.398Z,21.69
2022-10-12T22:32:01.696Z,21.70
2022-10-12T22:34:02.974Z,21.66
2022-10-12T22:36:04.360Z,20.77
2022-10-12T22:38:05.642Z,21.58
2022-10-12T22:40:06.966Z,21.59
2022-10-12T22:42:08.239Z,21.55
2022-10-12T22:44:09.613Z,21.53
2022-10-12T22:46:10.954Z,21.54
2022-10-12T22:48:12.243Z,21.51
2022-10-12T22:50:13.533Z,21.48
2022-10-12T22:52:14.814Z,21.45
2022-10-12T22:54:16.148Z,21.42
2022-10-12T22:56:17.622Z,21.39
2022-10-12T22:58:18.890Z,21.38
2022-10-12T23:00:20.166Z,21.35
2022-10-12T23:02:21.762Z,21.34
2022-10-12T23:04:23.139Z,21.33
2022-10-12T23:06:24.402Z,21.31
2022-10-12T23:08:25.748Z,21.30
2022-10-12T23:10:27.018Z,21.28
2022-10-12T23:12:28.298Z,21.28
2022-10-12T23:14:29.655Z,21.27
2022-10-12T23:16:30.966Z,21.32
2022-10-12T23:18:33.439Z,21.35
2022-10-12T23:20:34.755Z,21.35
2022-10-12T23:22:36.038Z,21.35
2022-10-12T23:24:37.322Z,21.34
2022-10-12T23:26:38.635Z,21.34
2022-10-12T23:28:39.969Z,21.35
2022-10-12T23:30:41.298Z,21.33
2022-10-12T23:32:42.582Z,21.36
2022-10-12T23:34:43.859Z,21.36
2022-10-12T23:36:45.174Z,21.34
2022-10-12T23:38:46.494Z,21.30
2022-10-12T23:40:47.827Z,21.34
2022-10-12T23:42:49.205Z,21.33
2022-10-12T23:44:50.499Z,21.32
2022-10-12T23:46:51.827Z,21.29
2022-10-12T23:48:53.107Z,21.30
2022-10-12T23:50:54.591Z,21.27
2022-10-12T23:52:55.886Z,21.30
2022-10-12T23:54:57.154Z,21.34
2022-10-12T23:56:58.414Z,21.32
2022-10-12T23:59:00.640Z,21.40
